createdAt,value
2022-08-29T00:01:30.778Z,14.1
2022-08-29T00:06:37.142Z,14.0
2022-08-29T00:11:46.419Z,13.9
2022-08-29T00:16:50.078Z,13.8
2022-08-29T00:22:00.390Z,13.8
2022-08-29T00:27:02.761Z,13.7
2022-08-29T00:32:09.197Z,13.6
2022-08-29T00:37:39.577Z,13.5
2022-08-29T00:42:21.904Z,13.5
2022-08-29T00:47:48.494Z,13.4
2022-08-29T00:52:34.844Z,13.3
2022-08-29T00:57:41.255Z,13.3
2022-08-29T01:07:54.176Z,13.2
2022-08-29T01:13:00.542Z,13.1
2022-08-29T01:18:06.966Z,13.0
2022-08-29T01:23:13.320Z,13.0
2022-08-29T01:29:03.755Z,12.9
2022-08-29T01:33:26.058Z,12.9
2022-08-29T01:38:32.428Z,12.8
2022-08-29T01:43:38.797Z,12.8
2022-08-29T01:49:09.190Z,12.8
2022-08-29T01:53:51.561Z,12.7
2022-08-29T01:59:00.126Z,12.7
2022-08-29T02:04:10.499Z,12.6
2022-08-29T02:09:12.955Z,12.6
2022-08-29T02:19:24.720Z,12.5
2022-08-29T02:29:38.676Z,12.4
2022-08-29T02:34:47.631Z,12.3
2022-08-29T02:39:52.311Z,12.3
2022-08-29T02:44:58.693Z,12.2
2022-08-29T02:50:05.066Z,12.2
2022-08-29T02:55:11.714Z,12.1
2022-08-29T03:00:18.090Z,12.1
2022-08-29T03:05:28.476Z,12.0
2022-08-29T03:10:30.907Z,12.0
2022-08-29T03:15:37.302Z,11.9
2022-08-29T03:20:47.684Z,11.9
2022-08-29T03:25:54.637Z,11.8
2022-08-29T03:31:01.161Z,11.8
2022-08-29T03:36:03.443Z,11.8
2022-08-29T03:41:13.838Z,11.7
2022-08-29T03:46:16.279Z,11.7
2022-08-29T03:51:12.566Z,11.6
2022-08-29T03:56:28.966Z,11.6
2022-08-29T04:01:59.508Z,11.5
2022-08-29T04:06:41.737Z,11.5
2022-08-29T04:11:52.305Z,11.4
2022-08-29T04:16:44.793Z,11.4
2022-08-29T04:22:01.187Z,11.4
2022-08-29T04:27:07.563Z,11.3
2022-08-29T04:32:03.926Z,11.3
2022-08-29T04:42:25.700Z,11.3
2022-08-29T04:47:33.138Z,11.3
2022-08-29T04:52:39.503Z,11.3
2022-08-29T04:57:45.999Z,11.4
2022-08-29T05:02:52.407Z,11.4
2022-08-29T05:07:58.891Z,11.4
2022-08-29T05:12:55.244Z,11.5
2022-08-29T05:18:11.801Z,11.5
2022-08-29T05:28:27.544Z,11.5
2022-08-29T05:33:34.933Z,11.6
2022-08-29T05:39:05.366Z,11.6
2022-08-29T05:43:43.701Z,11.6
2022-08-29T05:48:50.050Z,11.7
2022-08-29T05:53:56.476Z,11.7
2022-08-29T06:03:59.526Z,11.9
2022-08-29T06:09:15.783Z,12.1
2022-08-29T06:14:22.092Z,12.2
2022-08-29T06:19:28.517Z,12.3
2022-08-29T06:24:34.940Z,12.5
2022-08-29T06:30:37.498Z,12.8
2022-08-29T06:35:24.836Z,12.8
2022-08-29T06:40:31.467Z,13.0
2022-08-29T06:48:29.426Z,13.2
2022-08-29T06:50:45.723Z,13.4
2022-08-29T06:56:11.274Z,13.6
2022-08-29T07:02:08.529Z,13.8
2022-08-29T07:06:49.231Z,14.0
2022-08-29T07:12:09.634Z,14.5
2022-08-29T07:16:52.987Z,14.5
2022-08-29T07:22:23.389Z,14.7
2022-08-29T07:34:12.072Z,15.2
2022-08-29T07:38:22.334Z,15.5
2022-08-29T07:43:36.727Z,15.7
2022-08-29T07:49:40.342Z,15.9
2022-08-29T07:58:27.822Z,16.3
2022-08-29T08:03:58.253Z,16.4
2022-08-29T08:09:40.794Z,16.6
2022-08-29T08:13:37.030Z,16.8
2022-08-29T08:18:53.471Z,17.1
2022-08-29T08:23:59.933Z,17.3
2022-08-29T08:29:06.300Z,17.7
2022-08-29T08:34:12.669Z,18.0
2022-08-29T08:39:19.060Z,18.5
2022-08-29T08:44:53.492Z,19.0
2022-08-29T08:49:51.918Z,19.4
2022-08-29T08:54:38.288Z,19.8
2022-08-29T08:59:44.796Z,20.1
2022-08-29T09:04:51.184Z,20.3
2022-08-29T09:10:01.637Z,20.5
2022-08-29T09:14:53.977Z,20.6
2022-08-29T09:20:10.416Z,20.8
2022-08-29T09:25:40.865Z,21.0
2022-08-29T09:30:23.192Z,21.3
2022-08-29T09:35:29.704Z,21.8
2022-08-29T09:41:04.121Z,22.6
2022-08-29T09:45:42.546Z,23.6
2022-08-29T09:51:12.889Z,24.7
2022-08-29T09:55:55.237Z,25.8
2022-08-29T10:01:01.679Z,26.7
2022-08-29T10:06:07.996Z,27.7
2022-08-29T10:11:58.446Z,28.4
2022-08-29T10:16:20.972Z,29.2
2022-08-29T10:21:31.278Z,29.9
2022-08-29T10:27:13.721Z,30.7
2022-08-29T10:32:21.099Z,30.7
2022-08-29T10:37:27.549Z,30.7
2022-08-29T10:42:33.944Z,30.4
2022-08-29T10:47:40.321Z,30.1
2022-08-29T10:52:50.747Z,29.8
2022-08-29T10:57:43.077Z,29.5
2022-08-29T11:03:13.688Z,29.2
2022-08-29T11:08:05.975Z,29.0
2022-08-29T11:13:16.359Z,28.9
2022-08-29T11:18:22.517Z,29.0
2022-08-29T11:23:45.207Z,29.0
2022-08-29T11:28:35.618Z,29.1
2022-08-29T11:33:39.716Z,29.4
2022-08-29T11:38:46.105Z,29.6
2022-08-29T11:49:02.872Z,29.6
2022-08-29T11:54:05.246Z,29.6
2022-08-29T12:04:18.043Z,29.3
2022-08-29T12:09:24.547Z,29.2
2022-08-29T12:14:35.527Z,29.2
2022-08-29T12:19:37.608Z,29.2
2022-08-29T12:24:44.007Z,29.2
2022-08-29T12:29:43.783Z,29.2
2022-08-29T12:35:00.748Z,29.3
2022-08-29T12:40:03.329Z,29.4
2022-08-29T12:45:09.556Z,29.6
2022-08-29T12:50:19.934Z,29.7
2022-08-29T12:55:12.282Z,29.9
2022-08-29T13:00:28.694Z,30.1
2022-08-29T13:05:28.920Z,30.2
2022-08-29T13:10:44.450Z,30.4
2022-08-29T13:15:47.855Z,30.5
2022-08-29T13:20:44.192Z,30.5
2022-08-29T13:26:00.579Z,30.4
2022-08-29T13:36:13.327Z,30.3
2022-08-29T13:41:09.695Z,30.3
2022-08-29T13:46:26.124Z,30.5
2022-08-29T13:51:56.535Z,30.7
2022-08-29T13:56:42.862Z,30.9
2022-08-29T14:02:10.250Z,31.0
2022-08-29T14:06:50.794Z,31.1
2022-08-29T14:11:58.180Z,31.0
2022-08-29T14:17:04.575Z,30.9
2022-08-29T14:22:10.946Z,30.8
2022-08-29T14:27:07.311Z,30.8
2022-08-29T14:32:23.835Z,30.8
2022-08-29T14:37:30.307Z,30.9
2022-08-29T14:42:36.675Z,30.9
2022-08-29T14:48:07.084Z,30.8
2022-08-29T14:57:55.826Z,30.6
2022-08-29T15:03:02.260Z,30.5
2022-08-29T15:09:02.717Z,30.0
2022-08-29T15:13:50.054Z,30.0
2022-08-29T15:23:52.794Z,29.5
2022-08-29T15:29:09.170Z,29.3
2022-08-29T15:34:49.631Z,28.8
2022-08-29T15:39:57.283Z,28.7
2022-08-29T15:45:07.464Z,28.5
2022-08-29T15:52:12.406Z,28.0
2022-08-29T15:56:06.262Z,28.0
2022-08-29T16:01:12.758Z,27.8
2022-08-29T16:06:09.150Z,27.5
2022-08-29T16:11:45.599Z,27.4
2022-08-29T16:16:31.941Z,27.2
2022-08-29T16:21:38.331Z,27.0
2022-08-29T16:26:45.861Z,26.8
2022-08-29T16:31:51.199Z,26.6
2022-08-29T16:36:57.702Z,26.5
2022-08-29T16:41:54.038Z,26.3
2022-08-29T16:47:00.406Z,26.1
2022-08-29T16:57:43.210Z,25.9
2022-08-29T17:02:29.690Z,25.7
2022-08-29T17:07:25.956Z,25.6
2022-08-29T17:20:05.635Z,25.3
2022-08-29T17:24:51.973Z,25.3
2022-08-29T17:29:59.369Z,25.3
2022-08-29T17:34:55.732Z,25.1
2022-08-29T17:40:12.403Z,25.0
2022-08-29T17:45:18.689Z,24.8
2022-08-29T17:50:15.072Z,24.6
2022-08-29T18:00:37.880Z,24.3
2022-08-29T18:15:46.996Z,23.8
2022-08-29T18:21:03.402Z,23.7
2022-08-29T18:26:09.798Z,23.5
2022-08-29T18:36:26.566Z,23.2
2022-08-29T18:41:28.916Z,23.1
2022-08-29T18:46:36.376Z,22.9
2022-08-29T18:52:06.839Z,22.8
2022-08-29T19:08:47.952Z,22.3
2022-08-29T19:16:03.718Z,22.3
2022-08-29T19:29:03.113Z,21.9
2022-08-29T19:36:09.736Z,21.6
2022-08-29T19:48:30.854Z,21.5
2022-08-29T19:56:19.951Z,21.3
2022-08-29T20:02:42.542Z,21.2
2022-08-29T20:05:58.879Z,21.6
2022-08-29T20:12:21.844Z,20.8
2022-08-29T20:18:31.093Z,20.7
2022-08-29T20:23:38.446Z,20.7
2022-08-29T20:28:44.985Z,20.6
2022-08-29T20:33:51.368Z,20.5
2022-08-29T20:38:57.900Z,20.4
2022-08-29T20:43:54.264Z,20.3
2022-08-29T20:49:14.692Z,20.2
2022-08-29T20:54:17.090Z,20.1
2022-08-29T20:59:26.509Z,20.0
2022-08-29T21:04:30.034Z,19.9
2022-08-29T21:09:36.511Z,19.8
2022-08-29T21:14:42.873Z,19.7
2022-08-29T21:19:39.242Z,19.6
2022-08-29T21:25:19.689Z,19.5
2022-08-29T21:30:06.024Z,19.5
2022-08-29T21:40:04.773Z,19.3
2022-08-29T21:45:21.160Z,19.2
2022-08-29T21:55:23.954Z,19.0
2022-08-29T22:00:43.360Z,18.9
2022-08-29T22:06:06.778Z,18.8
2022-08-29T22:10:53.113Z,18.7
2022-08-29T22:16:13.631Z,18.7
2022-08-29T22:21:19.927Z,18.6
2022-08-29T22:26:12.282Z,18.5
2022-08-29T22:31:22.795Z,18.4
2022-08-29T22:36:45.096Z,18.4
2022-08-29T22:42:34.708Z,18.2
2022-08-29T22:47:18.059Z,18.2
2022-08-29T22:52:44.490Z,18.2
2022-08-29T22:57:30.828Z,18.1
2022-08-29T23:02:37.353Z,18.0
2022-08-29T23:07:43.652Z,18.0
2022-08-29T23:13:10.081Z,17.9
2022-08-29T23:23:01.863Z,17.7
2022-08-29T23:28:09.211Z,17.7
2022-08-29T23:33:15.899Z,17.6
2022-08-29T23:38:26.054Z,17.6
2022-08-29T23:43:28.454Z,17.5
2022-08-29T23:48:58.931Z,17.4
2022-08-29T23:54:04.869Z,17.4
2022-08-29T23:58:51.221Z,17.3
